Time;durP1;ratioP1;P1;durP2;ratioP2;P2;SDS_P1;SDS_P2;PMS_P1;PMS_P2;Temp;Humidity;BMP_temperature;BMP_pressure;BME280_temperature;BME280_humidity;BME280_pressure;Samples;Min_cycle;Max_cycle;Signal;HPM_P1;HPM_P2
2021/04/02 00:02:09;;;;;;;;;;;9.30;99.90;;;;;;5055903;28;20049;-85
2021/04/02 00:04:38;;;;;;;9.55;6.03;;;9.30;99.90;;;;;;5055373;28;19920;-84
2021/04/02 00:07:07;;;;;;;9.90;6.28;;;9.30;99.90;;;;;;5055500;28;20052;-84
2021/04/02 00:09:37;;;;;;;11.32;6.85;;;9.30;99.90;;;;;;5055697;28;20056;-86
2021/04/02 00:12:10;;;;;;;11.48;7.68;;;9.30;99.90;;;;;;5042717;28;20067;-86
2021/04/02 00:14:41;;;;;;;11.50;7.45;;;9.20;99.90;;;;;;5059173;28;20060;-84
2021/04/02 00:17:08;;;;;;;10.85;6.95;;;9.10;99.90;;;;;;5059264;28;20063;-84
2021/04/02 00:19:38;;;;;;;10.18;6.85;;;9.20;99.90;;;;;;5074390;28;20049;-85
2021/04/02 00:22:09;;;;;;;11.63;7.60;;;9.20;99.90;;;;;;5059022;28;20060;-85
2021/04/02 00:24:36;;;;;;;11.47;7.23;;;9.10;99.90;;;;;;5059032;28;20394;-87
2021/04/02 00:27:14;;;;;;;13.82;8.13;;;9.20;99.90;;;;;;5059842;28;20484;-84
2021/04/02 00:29:41;;;;;;;12.23;7.53;;;9.20;99.90;;;;;;5058957;28;20056;-87
2021/04/02 00:32:11;;;;;;;12.75;7.80;;;9.10;99.90;;;;;;5059161;28;20486;-85
2021/04/02 00:34:42;;;;;;;11.77;8.35;;;9.00;99.90;;;;;;5059163;28;20063;-84
2021/04/02 00:37:11;;;;;;;14.57;7.90;;;9.00;99.90;;;;;;5059160;28;20425;-86
2021/04/02 00:39:39;;;;;;;14.98;8.77;;;9.00;99.90;;;;;;5074103;28;20071;-85
2021/04/02 00:42:07;;;;;;;12.90;8.07;;;8.90;99.90;;;;;;5057952;28;20545;-84
2021/04/02 00:44:37;;;;;;;13.65;8.32;;;8.90;99.90;;;;;;5075245;28;20428;-85
2021/04/02 00:47:08;;;;;;;13.27;8.25;;;9.00;99.90;;;;;;5074675;28;20072;-85
2021/04/02 00:49:35;;;;;;;13.23;8.43;;;8.90;99.90;;;;;;5057970;28;20053;-86
2021/04/02 00:52:05;;;;;;;13.95;8.32;;;9.00;99.90;;;;;;5058482;28;20053;-86
2021/04/02 00:54:40;;;;;;;18.90;9.70;;;8.90;99.90;;;;;;5058939;28;20053;-85
2021/04/02 00:57:11;;;;;;;15.30;9.02;;;8.90;99.90;;;;;;5058842;28;20052;-85
2021/04/02 00:59:38;;;;;;;14.43;9.25;;;9.00;99.90;;;;;;5041543;28;20389;-85
2021/04/02 01:02:06;;;;;;;15.73;8.88;;;9.00;99.90;;;;;;5058351;28;20041;-86
2021/04/02 01:04:33;;;;;;;15.23;9.27;;;9.00;99.90;;;;;;5043934;28;20049;-86
2021/04/02 01:07:05;;;;;;;13.40;8.40;;;9.00;99.90;;;;;;5058243;28;20055;-86
2021/04/02 01:09:32;;;;;;;13.45;8.20;;;9.10;99.90;;;;;;5058007;28;20135;-85
2021/04/02 01:12:06;;;;;;;13.30;8.80;;;9.10;99.90;;;;;;5057961;28;20048;-86
2021/04/02 01:14:36;;;;;;;13.48;8.27;;;9.10;99.90;;;;;;5058132;28;20052;-85
2021/04/02 01:17:03;;;;;;;12.80;7.82;;;9.00;99.90;;;;;;5058088;28;20059;-84
2021/04/02 01:19:38;;;;;;;12.98;8.13;;;9.00;99.90;;;;;;5041459;28;20052;-86
2021/04/02 01:22:17;;;;;;;11.85;7.93;;;9.00;99.90;;;;;;5058490;28;20445;-85
2021/04/02 01:25:08;;;;;;;12.00;8.23;;;9.00;99.90;;;;;;5058019;28;20048;-85
2021/04/02 01:28:05;;;;;;;14.40;8.27;;;9.00;99.90;;;;;;5073854;28;20052;-84
2021/04/02 01:30:35;;;;;;;11.85;7.75;;;9.00;99.90;;;;;;5073900;28;20052;-85
2021/04/02 01:33:14;;;;;;;;;;;8.90;99.90;;;;;;5059113;28;20053;-85
2021/04/02 01:35:44;;;;;;;15.05;8.82;;;8.90;99.90;;;;;;5055970;28;19931;-86
2021/04/02 01:38:36;;;;;;;13.32;7.82;;;8.80;99.90;;;;;;5070254;28;20055;-85
2021/04/02 01:41:29;;;;;;;14.60;8.23;;;8.90;99.90;;;;;;5072324;28;20500;-84
2021/04/02 01:44:03;;;;;;;12.77;8.45;;;8.90;99.90;;;;;;5055186;28;20060;-87
2021/04/02 01:46:35;;;;;;;11.25;7.15;;;8.80;99.90;;;;;;5056096;28;20442;-86
2021/04/02 01:49:11;;;;;;;12.88;7.45;;;8.90;99.90;;;;;;5057303;28;20075;-88
2021/04/02 01:51:43;;;;;;;12.98;8.00;;;8.80;99.90;;;;;;5072938;28;20060;-87
2021/04/02 01:54:17;;;;;;;12.10;7.43;;;8.80;99.90;;;;;;5073532;28;20060;-88
2021/04/02 01:56:54;;;;;;;11.38;6.90;;;8.90;99.90;;;;;;5041459;28;20056;-88
2021/04/02 01:59:30;;;;;;;10.48;5.53;;;8.90;99.90;;;;;;5057541;28;20051;-87
2021/04/02 02:02:07;;;;;;;9.80;5.47;;;8.80;99.90;;;;;;5054084;28;20064;-87
2021/04/02 02:04:40;;;;;;;10.07;5.00;;;8.70;99.90;;;;;;5073297;28;20071;-87
2021/04/02 02:07:19;;;;;;;8.80;4.97;;;8.60;99.90;;;;;;5058670;28;20049;-87
2021/04/02 02:09:57;;;;;;;8.07;4.82;;;8.40;99.90;;;;;;5057359;28;20105;-88
2021/04/02 02:12:39;;;;;;;8.55;5.18;;;8.40;99.90;;;;;;5057621;28;20382;-87
2021/04/02 02:15:30;;;;;;;10.18;4.75;;;8.50;99.90;;;;;;5061739;28;20093;-87
2021/04/02 02:18:07;;;;;;;8.30;4.32;;;8.50;99.90;;;;;;5072928;28;20048;-87
2021/04/02 02:20:42;;;;;;;7.38;4.28;;;8.50;99.90;;;;;;5074538;28;20049;-86
2021/04/02 02:23:14;;;;;;;7.82;4.20;;;8.50;99.90;;;;;;5057753;28;20083;-87
2021/04/02 02:25:47;;;;;;;8.43;4.55;;;8.60;99.90;;;;;;5074455;28;20481;-87
2021/04/02 02:28:17;;;;;;;7.38;4.28;;;8.50;99.90;;;;;;5073205;28;20049;-87
2021/04/02 02:30:47;;;;;;;9.80;4.88;;;8.40;99.90;;;;;;5024724;28;20462;-87
2021/04/02 02:33:28;;;;;;;5.10;3.08;;;8.40;99.90;;;;;;5056052;28;20127;-87
2021/04/02 02:36:05;;;;;;;4.25;2.50;;;8.60;99.90;;;;;;5073370;28;20060;-88
2021/04/02 02:38:33;;;;;;;4.90;2.30;;;8.60;99.90;;;;;;5024008;28;20040;-85
2021/04/02 02:41:04;;;;;;;3.92;2.30;;;8.60;99.90;;;;;;5056410;28;20048;-86
2021/04/02 02:43:35;;;;;;;5.68;2.40;;;8.60;99.90;;;;;;5056873;28;20056;-87
2021/04/02 02:46:04;;;;;;;6.18;3.03;;;8.50;99.90;;;;;;5057778;28;20071;-87
2021/04/02 02:48:37;;;;;;;4.43;2.25;;;8.40;99.90;;;;;;5054064;28;20383;-87
2021/04/02 02:51:07;;;;;;;3.55;1.95;;;8.30;99.90;;;;;;5082224;28;20044;-87
2021/04/02 02:53:36;;;;;;;4.13;2.22;;;8.30;99.90;;;;;;5095385;28;20028;-85
2021/04/02 02:56:10;;;;;;;3.45;2.20;;;8.20;99.90;;;;;;5041519;28;20052;-88
2021/04/02 02:58:46;;;;;;;3.97;2.05;;;8.20;99.90;;;;;;5057379;28;20056;-87
2021/04/02 03:01:15;;;;;;;;;;;8.20;99.90;;;;;;5040163;28;20056;-87
2021/04/02 03:04:05;;;;;;;;;;;8.20;99.90;;;;;;5072744;28;20387;-89
2021/04/02 03:06:36;;;;;;;3.60;2.00;;;8.20;99.90;;;;;;5054954;28;20369;-87
2021/04/02 03:09:09;;;;;;;4.15;1.70;;;8.20;99.90;;;;;;5055830;28;20048;-87
2021/04/02 03:11:41;;;;;;;2.70;1.67;;;8.20;99.90;;;;;;5073135;28;20370;-87
2021/04/02 03:14:15;;;;;;;3.22;1.92;;;8.10;99.90;;;;;;5087553;28;20052;-87
2021/04/02 03:16:55;;;;;;;4.63;1.90;;;8.10;99.90;;;;;;5076500;28;20454;-86
2021/04/02 03:19:30;;;;;;;2.90;1.80;;;8.00;99.90;;;;;;5079224;28;20048;-86
2021/04/02 03:22:10;;;;;;;4.57;1.92;;;8.00;99.90;;;;;;5077275;28;20048;-86
2021/04/02 03:24:52;;;;;;;3.90;2.20;;;8.00;99.90;;;;;;5058319;28;20068;-86
2021/04/02 03:27:31;;;;;;;2.80;1.80;;;7.90;99.90;;;;;;5036770;28;20060;-89
2021/04/02 03:30:03;;;;;;;3.60;2.13;;;7.90;99.90;;;;;;5056458;28;20052;-87
2021/04/02 03:32:36;;;;;;;3.97;2.20;;;7.90;99.90;;;;;;5040956;28;20053;-87
2021/04/02 03:35:12;;;;;;;3.92;2.45;;;7.90;99.90;;;;;;5055983;28;20044;-87
2021/04/02 03:37:47;;;;;;;5.22;1.83;;;7.80;99.90;;;;;;5076696;28;20458;-87
2021/04/02 03:40:20;;;;;;;4.22;1.85;;;7.80;99.90;;;;;;5056773;28;20059;-87
2021/04/02 03:42:52;;;;;;;3.65;2.05;;;7.80;99.90;;;;;;5057499;28;20048;-88
2021/04/02 03:45:25;;;;;;;3.45;2.15;;;7.80;99.90;;;;;;5057763;28;20048;-87
2021/04/02 03:47:57;;;;;;;3.75;2.10;;;7.80;99.90;;;;;;5060732;28;20056;-86
2021/04/02 03:50:30;;;;;;;3.42;2.10;;;7.70;99.90;;;;;;5063030;28;20048;-87
2021/04/02 03:53:10;;;;;;;3.30;1.92;;;7.70;99.90;;;;;;5063088;28;20052;-87
2021/04/02 03:55:44;;;;;;;5.13;2.28;;;7.60;99.90;;;;;;5057362;28;20049;-88
2021/04/02 03:58:15;;;;;;;5.10;1.90;;;7.50;99.90;;;;;;5040467;28;20041;-86
2021/04/02 04:00:49;;;;;;;3.20;2.28;;;7.50;99.90;;;;;;5040106;28;20049;-88
2021/04/02 04:03:20;;;;;;;3.28;1.92;;;7.50;99.90;;;;;;5052121;28;20048;-87
2021/04/02 04:05:54;;;;;;;3.33;1.80;;;7.50;99.90;;;;;;5063276;28;20070;-87
2021/04/02 04:08:23;;;;;;;4.53;2.05;;;7.40;99.90;;;;;;5063307;28;20055;-87
2021/04/02 04:10:54;;;;;;;3.92;1.95;;;7.50;99.90;;;;;;5063261;28;20063;-86
2021/04/02 04:13:26;;;;;;;3.78;2.03;;;7.50;99.90;;;;;;5078961;28;20056;-87
2021/04/02 04:15:56;;;;;;;4.45;2.05;;;7.60;99.90;;;;;;5064413;28;20454;-88
2021/04/02 04:18:26;;;;;;;3.45;2.00;;;7.60;99.90;;;;;;5060889;28;20040;-87
2021/04/02 04:20:58;;;;;;;4.00;2.30;;;7.60;99.90;;;;;;5079968;28;20159;-88
2021/04/02 04:23:40;;;;;;;3.75;1.77;;;7.50;99.90;;;;;;5063016;28;20044;-87
2021/04/02 04:26:10;;;;;;;3.25;1.58;;;7.50;99.90;;;;;;5062774;28;20048;-87
2021/04/02 04:28:41;;;;;;;4.28;1.95;;;7.50;99.90;;;;;;5063007;28;20052;-87
2021/04/02 04:31:10;;;;;;;3.97;2.13;;;7.50;99.90;;;;;;5062522;28;20048;-87
2021/04/02 04:33:39;;;;;;;6.72;2.75;;;7.50;99.90;;;;;;5059252;28;20063;-85
2021/04/02 04:36:09;;;;;;;4.05;2.13;;;7.40;99.90;;;;;;5049397;28;20059;-85
2021/04/02 04:38:38;;;;;;;4.88;2.15;;;7.50;99.90;;;;;;5062865;28;20044;-87
2021/04/02 04:41:09;;;;;;;4.78;1.90;;;7.50;99.90;;;;;;5078719;28;20393;-87
2021/04/02 04:43:37;;;;;;;4.53;2.10;;;7.60;99.90;;;;;;5079223;28;20062;-85
2021/04/02 04:46:08;;;;;;;4.35;1.90;;;7.50;99.90;;;;;;5062693;28;20056;-87
2021/04/02 04:48:35;;;;;;;3.20;1.90;;;7.50;99.90;;;;;;5045904;28;20052;-88
2021/04/02 04:51:08;;;;;;;9.20;3.10;;;7.50;99.90;;;;;;5079396;28;20117;-89
2021/04/02 04:53:40;;;;;;;5.13;1.95;;;7.50;99.90;;;;;;5045757;28;20056;-87
2021/04/02 04:56:09;;;;;;;4.93;2.03;;;7.50;99.90;;;;;;5058240;28;20489;-86
2021/04/02 04:58:40;;;;;;;5.68;2.13;;;7.60;99.90;;;;;;5042219;28;20055;-88
2021/04/02 05:01:11;;;;;;;4.00;2.15;;;7.50;99.90;;;;;;5059605;28;20056;-85
2021/04/02 05:03:39;;;;;;;4.25;1.98;;;7.60;99.90;;;;;;5052598;28;20381;-86
2021/04/02 05:06:08;;;;;;;4.87;1.90;;;7.50;99.90;;;;;;5078296;28;20067;-86
2021/04/02 05:08:41;;;;;;;3.20;2.00;;;7.60;99.90;;;;;;5045285;28;20055;-87
2021/04/02 05:11:13;;;;;;;3.75;2.00;;;7.60;99.90;;;;;;5062034;28;20067;-87
2021/04/02 05:13:42;;;;;;;3.58;2.00;;;7.70;99.90;;;;;;5061814;28;20423;-88
2021/04/02 05:16:13;;;;;;;4.28;1.83;;;7.70;99.90;;;;;;5062234;28;20048;-88
2021/04/02 05:18:45;;;;;;;4.35;1.50;;;7.80;99.90;;;;;;5062063;28;20480;-88
2021/04/02 05:21:17;;;;;;;3.25;1.80;;;7.80;99.90;;;;;;5062306;28;20051;-88
2021/04/02 05:23:48;;;;;;;3.63;1.55;;;7.70;99.90;;;;;;5058643;28;20052;-86
2021/04/02 05:26:16;;;;;;;;;;;7.80;99.90;;;;;;5042473;28;20056;-88
2021/04/02 05:28:43;;;;;;;3.33;1.95;;;7.80;99.90;;;;;;5058332;28;19928;-87
2021/04/02 05:31:15;;;;;;;4.82;1.50;;;7.80;99.90;;;;;;5069043;28;20052;-87
2021/04/02 05:33:43;;;;;;;3.38;1.48;;;8.00;99.90;;;;;;5062082;28;20052;-86
2021/04/02 05:36:15;;;;;;;4.18;1.48;;;8.00;99.90;;;;;;5062221;28;20063;-86
2021/04/02 05:38:42;;;;;;;4.47;1.60;;;8.00;99.90;;;;;;5061938;28;20052;-88
2021/04/02 05:41:20;;;;;;;4.45;1.48;;;7.90;99.90;;;;;;5061661;28;20475;-87
2021/04/02 05:43:55;;;;;;;2.63;1.50;;;7.90;99.90;;;;;;5061656;28;20056;-87
2021/04/02 05:46:25;;;;;;;3.38;1.48;;;7.90;99.90;;;;;;5061164;28;20052;-87
2021/04/02 05:49:00;;;;;;;3.03;1.30;;;7.90;99.90;;;;;;5078725;28;20048;-88
2021/04/02 05:51:31;;;;;;;2.97;1.50;;;7.90;99.90;;;;;;5080749;28;20055;-85
2021/04/02 05:54:04;;;;;;;2.83;1.23;;;7.90;99.90;;;;;;5062414;28;20063;-87
2021/04/02 05:56:33;;;;;;;2.70;1.45;;;7.90;99.90;;;;;;5061994;28;20055;-86
2021/04/02 05:59:03;;;;;;;3.35;1.45;;;7.90;99.90;;;;;;5078389;28;20350;-87
2021/04/02 06:01:34;;;;;;;3.80;1.33;;;7.80;99.90;;;;;;5061496;28;20052;-88
2021/04/02 06:04:01;;;;;;;2.47;1.20;;;7.80;99.90;;;;;;5076698;28;20059;-87
2021/04/02 06:06:36;;;;;;;2.85;1.30;;;7.70;99.90;;;;;;5077364;28;20071;-86
2021/04/02 06:09:11;;;;;;;2.20;1.00;;;7.80;99.90;;;;;;5061481;28;20043;-87
2021/04/02 06:11:50;;;;;;;1.88;1.02;;;7.90;99.90;;;;;;5079745;28;20044;-85
2021/04/02 06:14:19;;;;;;;2.92;1.13;;;7.90;99.90;;;;;;5066164;28;20048;-86
2021/04/02 06:16:58;;;;;;;2.60;1.27;;;7.90;99.90;;;;;;5049917;28;20502;-85
2021/04/02 06:19:28;;;;;;;3.47;1.17;;;7.90;99.90;;;;;;5082473;28;20401;-85
2021/04/02 06:21:58;;;;;;;2.95;1.40;;;7.80;99.90;;;;;;5061016;28;20048;-85
2021/04/02 06:24:46;;;;;;;4.25;1.30;;;7.90;99.90;;;;;;5061750;28;20393;-86
2021/04/02 06:27:20;;;;;;;2.90;1.13;;;7.90;99.90;;;;;;5082763;28;20048;-84
2021/04/02 06:29:49;;;;;;;2.95;1.20;;;7.90;99.90;;;;;;5064016;28;20043;-85
2021/04/02 06:32:36;;;;;;;2.85;1.05;;;7.90;99.90;;;;;;5098095;28;20047;-84
2021/04/02 06:35:11;;;;;;;1.73;0.95;;;7.90;99.90;;;;;;5036770;28;20055;-85
2021/04/02 06:37:55;;;;;;;2.58;0.90;;;7.90;99.90;;;;;;5048903;28;20063;-83
2021/04/02 06:40:24;;;;;;;3.38;0.90;;;7.90;99.90;;;;;;5046852;28;20060;-86
2021/04/02 06:42:59;;;;;;;;;;;7.90;99.90;;;;;;5046040;28;20051;-87
2021/04/02 06:45:28;;;;;;;3.03;1.27;;;8.00;99.90;;;;;;5068210;28;19920;-84
2021/04/02 06:48:10;;;;;;;4.43;2.30;;;7.90;99.90;;;;;;5093563;28;20040;-83
2021/04/02 06:50:50;;;;;;;4.53;1.90;;;8.00;99.90;;;;;;5090536;28;20048;-85
2021/04/02 06:53:19;;;;;;;5.10;2.08;;;8.10;99.90;;;;;;5079718;28;20059;-85
2021/04/02 06:55:54;;;;;;;3.58;2.10;;;8.00;99.90;;;;;;5063204;28;20397;-85
2021/04/02 06:58:49;;;;;;;6.97;1.92;;;8.00;99.90;;;;;;5059055;28;20059;-87
2021/04/02 07:01:23;;;;;;;7.45;3.25;;;8.10;99.90;;;;;;5091551;28;20048;-87
2021/04/02 07:03:57;;;;;;;5.47;2.70;;;8.10;99.90;;;;;;5057854;28;20052;-85
2021/04/02 07:06:40;;;;;;;;;;;;;;;;;;;;;
2021/04/02 07:09:40;;;;;;;6.03;2.97;;;8.10;99.90;;;;;;5042639;28;20044;-88
2021/04/02 07:12:21;;;;;;;6.22;3.42;;;8.10;99.90;;;;;;5058108;28;20052;-89
2021/04/02 07:14:58;;;;;;;5.75;2.70;;;8.00;99.90;;;;;;5067392;28;20063;-86
2021/04/02 07:17:29;;;;;;;6.80;3.33;;;7.90;99.90;;;;;;5059568;28;20059;-85
2021/04/02 07:20:13;;;;;;;4.18;2.03;;;7.90;99.90;;;;;;5048322;28;20119;-87
2021/04/02 07:22:48;;;;;;;5.38;2.20;;;7.90;99.90;;;;;;5066099;28;20063;-85
2021/04/02 07:26:02;;;;;;;3.00;1.88;;;7.90;99.90;;;;;;5031891;28;20060;-87
2021/04/02 07:29:21;;;;;;;11.82;2.60;;;7.90;99.90;;;;;;5063229;28;20211;-87
2021/04/02 07:36:03;;;;;;;5.97;2.17;;;8.00;99.90;;;;;;5063949;28;20048;-87
2021/04/02 07:41:45;;;;;;;7.45;2.20;;;8.20;99.90;;;;;;5064046;28;20049;-85
2021/04/02 07:44:42;;;;;;;3.30;1.50;;;8.20;99.90;;;;;;5067469;28;20048;-82
2021/04/02 07:47:13;;;;;;;3.20;1.60;;;8.10;99.90;;;;;;5064603;28;20048;-87
2021/04/02 07:50:02;;;;;;;7.00;2.00;;;8.20;99.90;;;;;;5081244;28;20389;-87
2021/04/02 07:52:38;;;;;;;3.33;1.95;;;8.20;99.90;;;;;;5081426;28;20059;-86
2021/04/02 07:55:16;;;;;;;4.00;1.60;;;8.20;99.90;;;;;;5081098;28;20385;-86
2021/04/02 07:57:59;;;;;;;3.95;1.80;;;8.10;99.90;;;;;;5101865;28;20063;-85
2021/04/02 08:00:37;;;;;;;4.47;2.33;;;8.20;99.90;;;;;;5065465;28;20040;-88
2021/04/02 08:03:25;;;;;;;5.32;1.77;;;8.40;99.90;;;;;;5047934;28;20048;-89
2021/04/02 08:06:07;;;;;;;5.10;1.98;;;8.60;99.90;;;;;;5060672;28;20071;-84
2021/04/02 08:08:47;;;;;;;3.03;1.75;;;8.60;99.90;;;;;;5078481;28;20058;-87
2021/04/02 08:11:21;;;;;;;3.08;1.60;;;8.80;99.90;;;;;;5078095;28;20063;-88
2021/04/02 08:14:09;;;;;;;3.72;1.77;;;9.00;99.40;;;;;;5062753;28;20055;-88
2021/04/02 08:16:47;;;;;;;8.57;1.50;;;9.10;99.00;;;;;;5083595;28;20052;-86
2021/04/02 08:19:22;;;;;;;5.53;1.42;;;9.20;98.50;;;;;;5079719;28;20365;-86
2021/04/02 08:21:53;;;;;;;3.65;1.65;;;9.30;98.30;;;;;;5062010;28;20047;-86
2021/04/02 08:24:27;;;;;;;5.43;1.70;;;9.30;98.60;;;;;;5062776;28;20476;-87
2021/04/02 08:27:29;;;;;;;3.95;1.55;;;9.50;97.90;;;;;;5060964;28;20059;-87
2021/04/02 08:30:04;;;;;;;3.33;1.50;;;9.60;96.10;;;;;;5079441;28;20047;-85
2021/04/02 08:32:37;;;;;;;4.82;1.75;;;9.50;96.50;;;;;;5061714;28;20048;-87
2021/04/02 08:35:10;;;;;;;8.13;2.05;;;9.60;96.20;;;;;;5064406;28;20052;-88
2021/04/02 08:38:00;;;;;;;4.72;1.60;;;9.70;95.70;;;;;;5047638;28;20491;-88
2021/04/02 08:40:46;;;;;;;4.53;1.58;;;9.90;95.00;;;;;;5064581;28;20389;-85
2021/04/02 08:43:19;;;;;;;5.68;1.70;;;10.10;94.00;;;;;;5061674;28;20070;-87
2021/04/02 08:45:50;;;;;;;4.55;1.90;;;10.10;94.10;;;;;;5058861;28;20048;-87
2021/04/02 08:48:22;;;;;;;4.95;1.70;;;10.00;94.30;;;;;;5079321;28;20044;-86
2021/04/02 08:50:57;;;;;;;4.90;2.05;;;10.00;94.10;;;;;;5062555;28;20385;-88
2021/04/02 08:53:24;;;;;;;3.63;1.50;;;9.70;94.70;;;;;;5061587;28;20052;-88
2021/04/02 08:56:08;;;;;;;3.35;1.48;;;9.60;95.50;;;;;;5080611;28;20056;-87
2021/04/02 08:58:53;;;;;;;5.95;2.05;;;9.50;96.10;;;;;;5063253;28;20066;-87
2021/04/02 09:01:48;;;;;;;8.70;2.38;;;9.60;95.40;;;;;;5081636;28;20056;-86
2021/04/02 09:04:35;;;;;;;;;;;;;;;;;;;;;
2021/04/02 09:07:10;;;;;;;5.90;1.70;;;9.90;95.70;;;;;;5056442;28;20503;-86
2021/04/02 09:10:06;;;;;;;4.47;1.95;;;10.00;95.30;;;;;;5062438;28;20048;-88
2021/04/02 09:13:33;;;;;;;3.17;1.67;;;10.20;94.40;;;;;;5058257;28;20055;-87
2021/04/02 09:16:49;;;;;;;2.55;1.55;;;10.10;94.40;;;;;;4978057;28;20046;-86
2021/04/02 09:19:30;;;;;;;4.63;1.98;;;10.20;93.80;;;;;;5056594;28;20045;-87
2021/04/02 09:22:25;;;;;;;5.22;1.70;;;9.90;93.90;;;;;;5062533;28;20052;-87
2021/04/02 09:28:41;;;;;;;7.22;1.80;;;9.80;94.70;;;;;;5016259;28;20054;-88
2021/04/02 09:32:22;;;;;;;;;;;;;;;;;;;;;
2021/04/02 10:05:47;;;;;;;;;;;;;;;;;;;;;
2021/04/02 10:12:45;;;;;;;;;;;;;;;;;;;;;
2021/04/02 10:20:07;;;;;;;;;;;;;;;;;;;;;
2021/04/02 10:30:55;;;;;;;;;;;;;;;;;;;;;
2021/04/02 10:45:17;;;;;;;5.07;1.98;;;10.60;90.30;;;;;;4807619;29;20057;-84
2021/04/02 10:48:16;;;;;;;5.05;2.20;;;10.50;90.80;;;;;;4932945;29;20052;-86
2021/04/02 10:55:07;;;;;;;3.58;1.83;;;11.30;87.60;;;;;;4844342;29;20169;-86
2021/04/02 11:05:53;;;;;;;6.15;1.60;;;12.30;79.60;;;;;;4954123;28;20053;-87
2021/04/02 11:11:17;;;;;;;5.32;2.13;;;12.00;81.50;;;;;;3637266;39;20386;-86
2021/04/02 11:14:26;;;;;;;5.40;3.20;;;12.60;77.50;;;;;;3543024;40;20127;-86
2021/04/02 11:45:29;;;;;;;5.55;1.90;;;16.00;53.90;;;;;;3486987;41;20129;-84
2021/04/02 11:48:10;;;;;;;2.72;1.45;;;15.90;54.20;;;;;;3500939;40;20398;-83
2021/04/02 11:50:44;;;;;;;4.72;1.60;;;16.10;54.00;;;;;;3530568;40;20147;-81
2021/04/02 11:53:33;;;;;;;5.50;2.00;;;16.40;53.10;;;;;;3523765;40;20084;-84
2021/04/02 11:56:01;;;;;;;5.32;2.00;;;16.50;52.00;;;;;;3552504;40;20077;-84
2021/04/02 11:58:33;;;;;;;4.25;1.55;;;15.60;53.80;;;;;;3568547;40;20093;-82
2021/04/02 12:01:11;;;;;;;2.50;1.50;;;15.90;55.10;;;;;;3545403;40;20085;-84
2021/04/02 12:03:44;;;;;;;3.60;1.50;;;17.20;51.70;;;;;;3546424;40;20082;-80
2021/04/02 12:06:21;;;;;;;4.10;1.80;;;19.20;48.30;;;;;;3557082;40;20073;-83
2021/04/02 12:08:50;;;;;;;2.67;1.30;;;19.80;45.20;;;;;;3553447;40;20097;-80
2021/04/02 12:11:22;;;;;;;3.80;1.60;;;20.00;44.70;;;;;;3547673;40;20074;-80
2021/04/02 12:13:49;;;;;;;5.68;1.70;;;22.00;42.00;;;;;;3553234;40;20085;-79
2021/04/02 12:16:23;;;;;;;4.40;1.60;;;21.50;40.40;;;;;;3554246;40;20122;-80
2021/04/02 12:18:51;;;;;;;4.03;1.45;;;20.70;42.10;;;;;;3588588;39;20125;-79
2021/04/02 12:21:23;;;;;;;4.80;1.80;;;21.60;42.10;;;;;;3585982;40;20065;-83
2021/04/02 12:24:25;;;;;;;4.07;1.35;;;22.50;38.90;;;;;;3583969;40;20068;-80
2021/04/02 12:27:12;;;;;;;4.10;1.60;;;24.00;38.00;;;;;;3588762;39;20079;-80
2021/04/02 12:30:04;;;;;;;3.72;1.70;;;26.10;35.90;;;;;;3596553;40;20072;-82
2021/04/02 12:33:11;;;;;;;;;;;;;;;;;;;;;
2021/04/02 12:35:53;;;;;;;4.47;1.60;;;25.50;33.00;;;;;;3595044;40;20064;-82
2021/04/02 12:38:33;;;;;;;3.05;1.63;;;24.10;33.80;;;;;;3596549;40;20083;-80
2021/04/02 12:41:23;;;;;;;2.60;1.67;;;23.60;35.40;;;;;;3589301;40;20398;-81
2021/04/02 12:44:19;;;;;;;;;;;;;;;;;;;;;
2021/04/02 12:48:02;;;;;;;;;;;;;;;;;;;;;
2021/04/02 12:51:51;;;;;;;;;;;;;;;;;;;;;
2021/04/02 12:55:04;;;;;;;;;;;;;;;;;;;;;
2021/04/02 12:57:47;;;;;;;3.03;1.80;;;24.20;33.90;;;;;;3509764;40;20430;-79
2021/04/02 13:00:41;;;;;;;5.18;2.13;;;23.70;34.70;;;;;;3503906;40;20093;-81
2021/04/02 13:03:21;;;;;;;5.95;2.00;;;23.10;34.60;;;;;;3527618;40;20094;-83
2021/04/02 13:06:01;;;;;;;;;;;;;;;;;;;;;
2021/04/02 13:09:01;;;;;;;2.95;2.00;;;25.10;33.70;;;;;;3523045;40;20095;-81
2021/04/02 13:11:32;;;;;;;5.35;2.33;;;26.80;32.10;;;;;;3511909;40;20071;-80
2021/04/02 13:14:44;;;;;;;5.15;2.25;;;27.70;31.30;;;;;;3520389;40;20086;-81
2021/04/02 13:17:54;;;;;;;;;;;;;;;;;;;;;
2021/04/02 13:21:01;;;;;;;;;;;24.20;33.40;;;;;;3488951;40;20085;-81
2021/04/02 13:24:01;;;;;;;;;;;;;;;;;;;;;
2021/04/02 13:27:33;;;;;;;;;;;;;;;;;;;;;
2021/04/02 13:30:36;;;;;;;;;;;19.70;39.50;;;;;;3525822;40;19926;-84
2021/04/02 13:33:34;;;;;;;;;;;;;;;;;;;;;
2021/04/02 13:37:10;;;;;;;9.57;3.00;;;19.10;40.70;;;;;;3508353;40;20076;-80
2021/04/02 13:40:02;;;;;;;7.32;3.05;;;20.60;39.70;;;;;;3513729;40;20087;-81
2021/04/02 13:42:42;;;;;;;5.78;3.30;;;23.20;36.50;;;;;;3516400;40;20076;-79
2021/04/02 13:45:29;;;;;;;8.15;4.60;;;24.10;34.30;;;;;;3501099;40;20084;-83
2021/04/02 13:48:12;;;;;;;10.63;4.60;;;23.10;34.30;;;;;;3550093;40;20066;-81
2021/04/02 13:55:03;;;;;;;7.40;4.63;;;21.40;36.30;;;;;;3487380;41;20100;-82
2021/04/02 13:57:53;;;;;;;7.45;4.60;;;19.50;39.60;;;;;;3519701;40;20078;-82
2021/04/02 14:00:53;;;;;;;7.28;4.85;;;20.10;38.70;;;;;;3546733;40;20073;-84
2021/04/02 14:03:50;;;;;;;9.10;4.95;;;20.20;38.30;;;;;;3488670;41;20401;-84
2021/04/02 14:07:11;;;;;;;10.30;5.32;;;19.50;39.90;;;;;;3490570;41;20061;-82
2021/04/02 14:13:37;;;;;;;10.30;6.60;;;21.40;38.10;;;;;;3462430;41;20074;-81
2021/04/02 14:20:13;;;;;;;10.40;5.50;;;20.90;38.20;;;;;;3460013;41;20077;-82
2021/04/02 14:22:43;;;;;;;9.43;5.63;;;21.50;36.80;;;;;;3468880;41;20077;-81
2021/04/02 14:25:23;;;;;;;8.38;4.80;;;21.90;36.60;;;;;;3489818;41;20105;-82
2021/04/02 14:27:55;;;;;;;5.75;3.88;;;22.80;35.20;;;;;;3478601;41;20083;-79
2021/04/02 14:30:43;;;;;;;6.45;3.42;;;22.40;35.30;;;;;;3489203;41;20074;-80
2021/04/02 14:33:28;;;;;;;4.78;3.00;;;21.80;36.00;;;;;;3504943;40;20083;-79
2021/04/02 14:36:25;;;;;;;7.93;2.90;;;22.30;35.50;;;;;;3508773;40;20142;-80
2021/04/02 14:39:28;;;;;;;;;;;;;;;;;;;;;
2021/04/02 14:42:04;;;;;;;6.00;3.20;;;22.60;35.00;;;;;;3560741;40;20064;-81
2021/04/02 14:44:35;;;;;;;6.63;2.40;;;23.40;34.70;;;;;;3572096;40;20435;-80
2021/04/02 14:47:39;;;;;;;;;;;;;;;;;;;;;
2021/04/02 14:50:15;;;;;;;10.48;2.55;;;25.80;32.30;;;;;;3559688;40;21246;-82
2021/04/02 14:52:51;;;;;;;5.28;2.28;;;26.90;31.10;;;;;;3566162;40;20384;-82
2021/04/02 14:55:26;;;;;;;5.80;3.13;;;25.70;30.80;;;;;;3565075;40;20069;-82
2021/04/02 14:57:57;;;;;;;4.68;3.20;;;23.80;32.80;;;;;;3575126;40;20119;-83
2021/04/02 15:00:34;;;;;;;7.55;3.03;;;22.20;35.30;;;;;;3567731;40;20080;-84
2021/04/02 15:03:05;;;;;;;4.88;2.88;;;22.50;35.40;;;;;;3585148;40;20050;-80
2021/04/02 15:05:32;;;;;;;6.13;3.28;;;23.40;34.00;;;;;;3563169;40;20139;-82
2021/04/02 15:08:00;;;;;;;5.15;3.28;;;22.40;34.90;;;;;;3572951;40;20078;-81
2021/04/02 15:10:35;;;;;;;6.72;2.60;;;22.10;35.40;;;;;;3553928;40;20082;-83
2021/04/02 15:13:17;;;;;;;6.30;3.40;;;23.50;34.60;;;;;;3560327;40;20087;-81
2021/04/02 15:15:44;;;;;;;9.52;3.55;;;24.50;33.00;;;;;;3577099;40;20445;-82
2021/04/02 15:18:26;;;;;;;5.32;3.65;;;24.30;32.10;;;;;;3578356;40;20092;-82
2021/04/02 15:21:07;;;;;;;;;;;;;;;;;;;;;
2021/04/02 15:26:31;;;;;;;10.27;4.57;;;19.80;38.40;;;;;;3605191;39;20166;-84
2021/04/02 15:29:20;;;;;;;8.27;4.57;;;18.20;41.00;;;;;;3590017;39;20351;-86
2021/04/02 15:31:48;;;;;;;13.50;4.53;;;16.70;44.20;;;;;;3589264;39;20290;-87
2021/04/02 15:34:21;;;;;;;10.18;4.20;;;15.90;46.20;;;;;;3597405;39;20076;-85
2021/04/02 15:36:54;;;;;;;8.25;3.67;;;15.40;47.60;;;;;;3590403;39;20075;-86
2021/04/02 15:39:24;;;;;;;6.45;3.85;;;15.10;48.20;;;;;;3614637;39;20064;-84
2021/04/02 15:41:54;;;;;;;10.52;5.22;;;14.90;49.10;;;;;;3598753;39;20114;-91
2021/04/02 15:44:37;;;;;;;;;;;;;;;;;;;;;
2021/04/02 15:47:13;;;;;;;8.60;3.50;;;14.40;50.50;;;;;;3590830;39;20078;-86
2021/04/02 15:49:45;;;;;;;8.10;4.55;;;13.90;51.10;;;;;;3589033;39;20072;-85
2021/04/02 15:52:13;;;;;;;9.32;4.70;;;13.70;52.00;;;;;;3597999;39;20076;-86
2021/04/02 15:54:47;;;;;;;11.90;4.90;;;13.50;53.20;;;;;;3589324;39;20076;-84
2021/04/02 15:57:19;;;;;;;10.60;3.80;;;14.00;52.60;;;;;;3591309;39;20278;-85
2021/04/02 15:59:54;;;;;;;8.80;3.90;;;15.10;48.70;;;;;;3607377;39;20354;-86
2021/04/02 16:02:45;;;;;;;10.85;4.57;;;15.80;47.40;;;;;;3599963;39;20082;-86
2021/04/02 16:05:39;;;;;;;;;;;;;;;;;;;;;
2021/04/02 16:08:09;;;;;;;9.50;4.20;;;17.70;44.10;;;;;;3609921;39;20076;-82
2021/04/02 16:10:47;;;;;;;6.95;3.47;;;18.20;42.60;;;;;;3607984;39;20087;-85
2021/04/02 16:13:20;;;;;;;8.98;3.90;;;18.20;42.80;;;;;;3600888;39;20075;-86
2021/04/02 16:16:14;;;;;;;9.35;3.67;;;18.50;42.10;;;;;;3578416;39;20099;-83
2021/04/02 16:18:45;;;;;;;7.75;4.07;;;18.50;41.80;;;;;;3600580;39;20080;-83
2021/04/02 16:21:16;;;;;;;7.72;4.50;;;18.20;42.10;;;;;;3597787;39;20071;-87
2021/04/02 16:23:44;;;;;;;8.63;4.70;;;17.90;42.40;;;;;;3591563;39;20072;-86
2021/04/02 16:26:23;;;;;;;11.07;5.45;;;17.50;43.40;;;;;;3591092;39;20283;-84
2021/04/02 16:29:56;;;;;;;;;;;;;;;;;;;;;
2021/04/02 16:32:54;;;;;;;10.63;4.70;;;16.10;45.30;;;;;;3540361;40;20093;-82